sensor_id;sensor_type;location;lat;lon;timestamp;P1;durP1;ratioP1;P2;durP2;ratioP2
3659;SDS011;1846;51.482;7.224;2023-04-03T00:00:06;10.23;;;7.28;;
3659;SDS011;1846;51.482;7.224;2023-04-03T00:02:33;12.40;;;7.40;;
3659;SDS011;1846;51.482;7.224;2023-04-03T00:05:00;11.80;;;7.75;;
3659;SDS011;1846;51.482;7.224;2023-04-03T00:07:27;12.85;;;8.00;;
3659;SDS011;1846;51.482;7.224;2023-04-03T00:09:54;9.57;;;8.30;;
3659;SDS011;1846;51.482;7.224;2023-04-03T00:12:22;9.60;;;8.13;;
3659;SDS011;1846;51.482;7.224;2023-04-03T00:14:49;11.75;;;8.05;;
3659;SDS011;1846;51.482;7.224;2023-04-03T00:17:16;14.52;;;8.73;;
3659;SDS011;1846;51.482;7.224;2023-04-03T00:19:43;12.88;;;8.57;;
3659;SDS011;1846;51.482;7.224;2023-04-03T00:22:09;17.58;;;9.30;;
3659;SDS011;1846;51.482;7.224;2023-04-03T00:24:36;13.02;;;8.40;;
3659;SDS011;1846;51.482;7.224;2023-04-03T00:27:03;10.70;;;8.40;;
3659;SDS011;1846;51.482;7.224;2023-04-03T00:29:31;13.23;;;8.63;;
3659;SDS011;1846;51.482;7.224;2023-04-03T00:31:58;11.05;;;8.45;;
3659;SDS011;1846;51.482;7.224;2023-04-03T00:34:25;15.70;;;8.37;;
3659;SDS011;1846;51.482;7.224;2023-04-03T00:36:52;15.85;;;8.13;;
3659;SDS011;1846;51.482;7.224;2023-04-03T00:39:19;11.07;;;8.80;;
3659;SDS011;1846;51.482;7.224;2023-04-03T00:41:46;10.43;;;8.80;;
3659;SDS011;1846;51.482;7.224;2023-04-03T00:44:23;12.98;;;8.65;;
3659;SDS011;1846;51.482;7.224;2023-04-03T00:47:28;11.60;;;8.80;;
3659;SDS011;1846;51.482;7.224;2023-04-03T00:49:57;12.57;;;8.50;;
3659;SDS011;1846;51.482;7.224;2023-04-03T00:52:25;12.57;;;8.52;;
3659;SDS011;1846;51.482;7.224;2023-04-03T00:54:56;11.13;;;8.00;;
3659;SDS011;1846;51.482;7.224;2023-04-03T00:57:26;13.07;;;7.70;;
3659;SDS011;1846;51.482;7.224;2023-04-03T00:59:54;8.53;;;7.10;;
3659;SDS011;1846;51.482;7.224;2023-04-03T01:02:25;10.68;;;7.00;;
3659;SDS011;1846;51.482;7.224;2023-04-03T01:04:53;8.95;;;6.93;;
3659;SDS011;1846;51.482;7.224;2023-04-03T01:07:21;12.23;;;6.60;;
3659;SDS011;1846;51.482;7.224;2023-04-03T01:09:51;9.10;;;6.00;;
3659;SDS011;1846;51.482;7.224;2023-04-03T01:12:22;8.43;;;5.20;;
3659;SDS011;1846;51.482;7.224;2023-04-03T01:14:52;6.57;;;5.20;;
3659;SDS011;1846;51.482;7.224;2023-04-03T01:17:27;7.32;;;5.20;;
3659;SDS011;1846;51.482;7.224;2023-04-03T01:20:03;5.07;;;4.68;;
3659;SDS011;1846;51.482;7.224;2023-04-03T01:22:59;4.90;;;4.45;;
3659;SDS011;1846;51.482;7.224;2023-04-03T01:25:32;8.80;;;4.53;;
3659;SDS011;1846;51.482;7.224;2023-04-03T01:28:01;5.53;;;4.30;;
3659;SDS011;1846;51.482;7.224;2023-04-03T01:30:30;4.55;;;3.90;;
3659;SDS011;1846;51.482;7.224;2023-04-03T01:33:00;4.45;;;4.00;;
3659;SDS011;1846;51.482;7.224;2023-04-03T01:35:27;5.53;;;3.67;;
3659;SDS011;1846;51.482;7.224;2023-04-03T01:37:54;4.60;;;4.18;;
3659;SDS011;1846;51.482;7.224;2023-04-03T01:40:21;7.18;;;4.35;;
3659;SDS011;1846;51.482;7.224;2023-04-03T01:42:48;7.07;;;4.30;;
3659;SDS011;1846;51.482;7.224;2023-04-03T01:45:15;5.43;;;3.70;;
3659;SDS011;1846;51.482;7.224;2023-04-03T01:47:41;3.80;;;3.40;;
3659;SDS011;1846;51.482;7.224;2023-04-03T01:50:10;6.05;;;3.80;;
3659;SDS011;1846;51.482;7.224;2023-04-03T01:52:37;4.20;;;3.20;;
3659;SDS011;1846;51.482;7.224;2023-04-03T01:55:04;4.20;;;3.22;;
3659;SDS011;1846;51.482;7.224;2023-04-03T01:57:31;4.95;;;3.60;;
3659;SDS011;1846;51.482;7.224;2023-04-03T01:59:58;7.03;;;3.58;;
3659;SDS011;1846;51.482;7.224;2023-04-03T02:02:25;6.70;;;3.92;;
3659;SDS011;1846;51.482;7.224;2023-04-03T02:04:52;6.53;;;3.90;;
3659;SDS011;1846;51.482;7.224;2023-04-03T02:07:21;5.40;;;3.40;;
3659;SDS011;1846;51.482;7.224;2023-04-03T02:09:48;6.70;;;3.63;;
3659;SDS011;1846;51.482;7.224;2023-04-03T02:12:14;5.40;;;3.03;;
3659;SDS011;1846;51.482;7.224;2023-04-03T02:14:42;4.97;;;4.15;;
3659;SDS011;1846;51.482;7.224;2023-04-03T02:17:09;3.78;;;2.95;;
3659;SDS011;1846;51.482;7.224;2023-04-03T02:19:36;4.88;;;3.40;;
3659;SDS011;1846;51.482;7.224;2023-04-03T02:22:03;6.03;;;2.97;;
3659;SDS011;1846;51.482;7.224;2023-04-03T02:24:31;5.00;;;2.60;;
3659;SDS011;1846;51.482;7.224;2023-04-03T02:26:58;8.32;;;3.05;;
3659;SDS011;1846;51.482;7.224;2023-04-03T02:29:25;4.00;;;2.60;;
3659;SDS011;1846;51.482;7.224;2023-04-03T02:31:52;4.80;;;2.90;;
3659;SDS011;1846;51.482;7.224;2023-04-03T02:34:19;5.65;;;2.70;;
3659;SDS011;1846;51.482;7.224;2023-04-03T02:36:46;7.15;;;2.97;;
3659;SDS011;1846;51.482;7.224;2023-04-03T02:39:13;3.88;;;2.50;;
3659;SDS011;1846;51.482;7.224;2023-04-03T02:41:42;4.20;;;2.75;;
3659;SDS011;1846;51.482;7.224;2023-04-03T02:44:11;3.80;;;2.50;;
3659;SDS011;1846;51.482;7.224;2023-04-03T02:46:38;4.15;;;2.30;;
3659;SDS011;1846;51.482;7.224;2023-04-03T02:49:05;6.82;;;2.60;;
3659;SDS011;1846;51.482;7.224;2023-04-03T02:51:32;4.70;;;2.30;;
3659;SDS011;1846;51.482;7.224;2023-04-03T02:53:59;5.10;;;2.60;;
3659;SDS011;1846;51.482;7.224;2023-04-03T02:56:26;5.57;;;2.60;;
3659;SDS011;1846;51.482;7.224;2023-04-03T02:58:54;6.32;;;2.78;;
3659;SDS011;1846;51.482;7.224;2023-04-03T03:01:21;2.33;;;2.10;;
3659;SDS011;1846;51.482;7.224;2023-04-03T03:03:48;5.53;;;2.40;;
3659;SDS011;1846;51.482;7.224;2023-04-03T03:06:15;3.67;;;2.22;;
3659;SDS011;1846;51.482;7.224;2023-04-03T03:08:43;2.90;;;2.42;;
3659;SDS011;1846;51.482;7.224;2023-04-03T03:11:10;2.58;;;2.38;;
3659;SDS011;1846;51.482;7.224;2023-04-03T03:13:37;6.05;;;2.60;;
3659;SDS011;1846;51.482;7.224;2023-04-03T03:16:06;2.55;;;2.33;;
3659;SDS011;1846;51.482;7.224;2023-04-03T03:18:33;4.87;;;2.00;;
3659;SDS011;1846;51.482;7.224;2023-04-03T03:21:02;3.45;;;2.72;;
3659;SDS011;1846;51.482;7.224;2023-04-03T03:23:30;6.03;;;2.15;;
3659;SDS011;1846;51.482;7.224;2023-04-03T03:25:58;3.58;;;1.88;;
3659;SDS011;1846;51.482;7.224;2023-04-03T03:28:27;4.00;;;2.10;;
3659;SDS011;1846;51.482;7.224;2023-04-03T03:30:54;5.80;;;2.17;;
3659;SDS011;1846;51.482;7.224;2023-04-03T03:33:22;5.80;;;2.20;;
3659;SDS011;1846;51.482;7.224;2023-04-03T03:35:49;3.73;;;2.50;;
3659;SDS011;1846;51.482;7.224;2023-04-03T03:38:16;4.40;;;2.47;;
3659;SDS011;1846;51.482;7.224;2023-04-03T03:40:43;4.32;;;2.10;;
3659;SDS011;1846;51.482;7.224;2023-04-03T03:43:10;2.97;;;2.15;;
3659;SDS011;1846;51.482;7.224;2023-04-03T03:45:37;3.13;;;2.20;;
3659;SDS011;1846;51.482;7.224;2023-04-03T03:48:04;3.10;;;2.10;;
3659;SDS011;1846;51.482;7.224;2023-04-03T03:50:32;3.85;;;2.25;;
3659;SDS011;1846;51.482;7.224;2023-04-03T03:52:59;3.67;;;1.95;;
3659;SDS011;1846;51.482;7.224;2023-04-03T03:55:26;5.03;;;2.20;;
3659;SDS011;1846;51.482;7.224;2023-04-03T03:57:53;4.53;;;2.00;;
3659;SDS011;1846;51.482;7.224;2023-04-03T04:00:20;3.17;;;1.70;;
3659;SDS011;1846;51.482;7.224;2023-04-03T04:02:47;6.78;;;2.22;;
3659;SDS011;1846;51.482;7.224;2023-04-03T04:05:14;9.30;;;2.10;;
3659;SDS011;1846;51.482;7.224;2023-04-03T04:07:42;5.13;;;2.40;;
3659;SDS011;1846;51.482;7.224;2023-04-03T04:10:09;3.90;;;2.20;;
3659;SDS011;1846;51.482;7.224;2023-04-03T04:12:36;1.70;;;1.60;;
3659;SDS011;1846;51.482;7.224;2023-04-03T04:15:03;3.47;;;2.58;;
3659;SDS011;1846;51.482;7.224;2023-04-03T04:17:31;3.60;;;2.22;;
3659;SDS011;1846;51.482;7.224;2023-04-03T04:20:00;4.07;;;2.38;;
3659;SDS011;1846;51.482;7.224;2023-04-03T04:22:27;4.68;;;2.40;;
3659;SDS011;1846;51.482;7.224;2023-04-03T04:24:56;3.63;;;2.25;;
3659;SDS011;1846;51.482;7.224;2023-04-03T04:27:22;5.38;;;2.17;;
3659;SDS011;1846;51.482;7.224;2023-04-03T04:29:49;4.60;;;2.80;;
3659;SDS011;1846;51.482;7.224;2023-04-03T04:32:16;5.93;;;2.80;;
3659;SDS011;1846;51.482;7.224;2023-04-03T04:34:43;4.10;;;2.10;;
3659;SDS011;1846;51.482;7.224;2023-04-03T04:37:10;2.35;;;1.80;;
3659;SDS011;1846;51.482;7.224;2023-04-03T04:39:37;6.88;;;2.72;;
3659;SDS011;1846;51.482;7.224;2023-04-03T04:42:05;7.18;;;2.30;;
3659;SDS011;1846;51.482;7.224;2023-04-03T04:44:37;3.90;;;2.60;;
3659;SDS011;1846;51.482;7.224;2023-04-03T04:47:04;8.82;;;2.80;;
3659;SDS011;1846;51.482;7.224;2023-04-03T04:49:31;5.85;;;2.67;;
3659;SDS011;1846;51.482;7.224;2023-04-03T04:51:58;6.40;;;2.80;;
3659;SDS011;1846;51.482;7.224;2023-04-03T04:54:25;5.90;;;2.60;;
3659;SDS011;1846;51.482;7.224;2023-04-03T04:56:52;5.38;;;2.55;;
3659;SDS011;1846;51.482;7.224;2023-04-03T04:59:20;7.18;;;2.20;;
3659;SDS011;1846;51.482;7.224;2023-04-03T05:01:47;4.97;;;2.65;;
3659;SDS011;1846;51.482;7.224;2023-04-03T05:04:14;6.93;;;2.83;;
3659;SDS011;1846;51.482;7.224;2023-04-03T05:06:41;4.60;;;2.28;;
3659;SDS011;1846;51.482;7.224;2023-04-03T05:09:07;4.60;;;2.20;;
3659;SDS011;1846;51.482;7.224;2023-04-03T05:11:35;4.85;;;2.70;;
3659;SDS011;1846;51.482;7.224;2023-04-03T05:14:01;7.97;;;2.55;;
3659;SDS011;1846;51.482;7.224;2023-04-03T05:16:31;7.38;;;2.70;;
3659;SDS011;1846;51.482;7.224;2023-04-03T05:18:58;7.80;;;2.88;;
3659;SDS011;1846;51.482;7.224;2023-04-03T05:21:25;6.50;;;2.50;;
3659;SDS011;1846;51.482;7.224;2023-04-03T05:23:56;3.45;;;2.55;;
3659;SDS011;1846;51.482;7.224;2023-04-03T05:26:24;4.00;;;2.50;;
3659;SDS011;1846;51.482;7.224;2023-04-03T05:28:51;5.55;;;2.95;;
3659;SDS011;1846;51.482;7.224;2023-04-03T05:31:18;6.13;;;3.17;;
3659;SDS011;1846;51.482;7.224;2023-04-03T05:33:47;5.95;;;2.70;;
3659;SDS011;1846;51.482;7.224;2023-04-03T05:36:13;6.38;;;3.00;;
3659;SDS011;1846;51.482;7.224;2023-04-03T05:38:40;6.50;;;2.92;;
3659;SDS011;1846;51.482;7.224;2023-04-03T05:41:07;8.32;;;3.42;;
3659;SDS011;1846;51.482;7.224;2023-04-03T05:43:34;4.10;;;2.60;;
3659;SDS011;1846;51.482;7.224;2023-04-03T05:46:02;8.00;;;3.20;;
3659;SDS011;1846;51.482;7.224;2023-04-03T05:48:30;9.43;;;3.25;;
3659;SDS011;1846;51.482;7.224;2023-04-03T05:50:58;3.37;;;3.07;;
3659;SDS011;1846;51.482;7.224;2023-04-03T05:53:27;3.60;;;2.75;;
3659;SDS011;1846;51.482;7.224;2023-04-03T05:55:55;6.10;;;2.65;;
3659;SDS011;1846;51.482;7.224;2023-04-03T05:58:22;6.85;;;2.60;;
3659;SDS011;1846;51.482;7.224;2023-04-03T06:00:49;12.55;;;3.20;;
3659;SDS011;1846;51.482;7.224;2023-04-03T06:03:16;7.97;;;3.45;;
3659;SDS011;1846;51.482;7.224;2023-04-03T06:05:43;6.57;;;3.20;;
3659;SDS011;1846;51.482;7.224;2023-04-03T06:08:12;5.18;;;2.78;;
3659;SDS011;1846;51.482;7.224;2023-04-03T06:10:39;6.88;;;2.70;;
3659;SDS011;1846;51.482;7.224;2023-04-03T06:13:06;5.45;;;2.92;;
3659;SDS011;1846;51.482;7.224;2023-04-03T06:15:33;7.22;;;3.20;;
3659;SDS011;1846;51.482;7.224;2023-04-03T06:18:00;4.90;;;2.97;;
3659;SDS011;1846;51.482;7.224;2023-04-03T06:20:27;6.15;;;2.95;;
3659;SDS011;1846;51.482;7.224;2023-04-03T06:22:54;6.00;;;2.85;;
3659;SDS011;1846;51.482;7.224;2023-04-03T06:25:22;6.00;;;2.90;;
3659;SDS011;1846;51.482;7.224;2023-04-03T06:27:49;6.35;;;2.90;;
3659;SDS011;1846;51.482;7.224;2023-04-03T06:30:18;5.43;;;2.75;;
3659;SDS011;1846;51.482;7.224;2023-04-03T06:32:45;8.23;;;3.30;;
3659;SDS011;1846;51.482;7.224;2023-04-03T06:35:11;4.22;;;2.90;;
3659;SDS011;1846;51.482;7.224;2023-04-03T06:37:38;3.92;;;3.45;;
3659;SDS011;1846;51.482;7.224;2023-04-03T06:40:06;5.10;;;3.10;;
3659;SDS011;1846;51.482;7.224;2023-04-03T06:42:37;6.22;;;2.65;;
3659;SDS011;1846;51.482;7.224;2023-04-03T06:45:04;3.63;;;2.53;;
3659;SDS011;1846;51.482;7.224;2023-04-03T06:47:32;11.63;;;3.75;;
3659;SDS011;1846;51.482;7.224;2023-04-03T06:49:59;6.80;;;3.70;;
3659;SDS011;1846;51.482;7.224;2023-04-03T06:52:26;6.97;;;3.00;;
3659;SDS011;1846;51.482;7.224;2023-04-03T06:54:53;5.95;;;2.95;;
3659;SDS011;1846;51.482;7.224;2023-04-03T06:57:22;6.18;;;3.10;;
3659;SDS011;1846;51.482;7.224;2023-04-03T06:59:50;5.53;;;2.70;;
3659;SDS011;1846;51.482;7.224;2023-04-03T07:02:17;6.40;;;3.00;;
3659;SDS011;1846;51.482;7.224;2023-04-03T07:04:45;7.10;;;3.42;;
3659;SDS011;1846;51.482;7.224;2023-04-03T07:07:12;4.53;;;2.30;;
3659;SDS011;1846;51.482;7.224;2023-04-03T07:09:39;4.28;;;2.60;;
3659;SDS011;1846;51.482;7.224;2023-04-03T07:12:07;6.25;;;2.80;;
3659;SDS011;1846;51.482;7.224;2023-04-03T07:14:34;7.55;;;3.13;;
3659;SDS011;1846;51.482;7.224;2023-04-03T07:17:03;5.47;;;2.10;;
3659;SDS011;1846;51.482;7.224;2023-04-03T07:19:30;3.97;;;2.42;;
3659;SDS011;1846;51.482;7.224;2023-04-03T07:21:56;5.40;;;2.60;;
3659;SDS011;1846;51.482;7.224;2023-04-03T07:24:23;5.68;;;3.00;;
3659;SDS011;1846;51.482;7.224;2023-04-03T07:26:51;5.83;;;2.53;;
3659;SDS011;1846;51.482;7.224;2023-04-03T07:29:19;7.10;;;2.58;;
3659;SDS011;1846;51.482;7.224;2023-04-03T07:31:48;4.75;;;2.10;;
3659;SDS011;1846;51.482;7.224;2023-04-03T07:34:16;5.80;;;2.80;;
3659;SDS011;1846;51.482;7.224;2023-04-03T07:36:43;5.15;;;2.40;;
3659;SDS011;1846;51.482;7.224;2023-04-03T07:39:10;5.78;;;2.20;;
3659;SDS011;1846;51.482;7.224;2023-04-03T07:41:37;5.38;;;2.70;;
3659;SDS011;1846;51.482;7.224;2023-04-03T07:44:04;5.40;;;2.10;;
3659;SDS011;1846;51.482;7.224;2023-04-03T07:46:31;3.83;;;2.28;;
3659;SDS011;1846;51.482;7.224;2023-04-03T07:48:58;9.63;;;2.70;;
3659;SDS011;1846;51.482;7.224;2023-04-03T07:51:26;6.35;;;2.47;;
3659;SDS011;1846;51.482;7.224;2023-04-03T07:53:54;3.38;;;2.10;;
3659;SDS011;1846;51.482;7.224;2023-04-03T07:56:21;5.23;;;2.80;;
3659;SDS011;1846;51.482;7.224;2023-04-03T07:58:50;3.80;;;2.42;;
3659;SDS011;1846;51.482;7.224;2023-04-03T08:01:17;5.80;;;2.10;;
3659;SDS011;1846;51.482;7.224;2023-04-03T08:03:44;7.80;;;2.70;;
3659;SDS011;1846;51.482;7.224;2023-04-03T08:06:10;5.70;;;2.30;;
3659;SDS011;1846;51.482;7.224;2023-04-03T08:08:40;5.20;;;2.60;;
3659;SDS011;1846;51.482;7.224;2023-04-03T08:11:07;6.45;;;2.70;;
3659;SDS011;1846;51.482;7.224;2023-04-03T08:13:34;5.45;;;2.50;;
3659;SDS011;1846;51.482;7.224;2023-04-03T08:16:07;6.10;;;3.05;;
3659;SDS011;1846;51.482;7.224;2023-04-03T08:18:35;5.13;;;3.30;;
3659;SDS011;1846;51.482;7.224;2023-04-03T08:21:04;4.90;;;2.20;;
3659;SDS011;1846;51.482;7.224;2023-04-03T08:23:33;5.67;;;2.43;;
3659;SDS011;1846;51.482;7.224;2023-04-03T08:26:06;34.40;;;4.05;;
3659;SDS011;1846;51.482;7.224;2023-04-03T08:28:33;13.00;;;2.57;;
3659;SDS011;1846;51.482;7.224;2023-04-03T08:31:02;12.00;;;2.53;;
3659;SDS011;1846;51.482;7.224;2023-04-03T08:33:32;11.15;;;2.47;;
3659;SDS011;1846;51.482;7.224;2023-04-03T08:36:00;9.25;;;1.80;;
3659;SDS011;1846;51.482;7.224;2023-04-03T08:38:27;2.60;;;1.70;;
3659;SDS011;1846;51.482;7.224;2023-04-03T08:41:02;8.93;;;2.00;;
3659;SDS011;1846;51.482;7.224;2023-04-03T08:43:40;4.20;;;1.60;;
3659;SDS011;1846;51.482;7.224;2023-04-03T08:46:20;7.30;;;1.70;;
3659;SDS011;1846;51.482;7.224;2023-04-03T08:48:53;2.15;;;1.67;;
3659;SDS011;1846;51.482;7.224;2023-04-03T08:51:21;3.35;;;1.83;;
3659;SDS011;1846;51.482;7.224;2023-04-03T08:53:51;3.80;;;1.92;;
3659;SDS011;1846;51.482;7.224;2023-04-03T08:56:24;2.72;;;2.15;;
3659;SDS011;1846;51.482;7.224;2023-04-03T08:58:52;3.65;;;1.52;;
3659;SDS011;1846;51.482;7.224;2023-04-03T09:01:24;1.88;;;1.48;;
3659;SDS011;1846;51.482;7.224;2023-04-03T09:03:55;4.45;;;1.98;;
3659;SDS011;1846;51.482;7.224;2023-04-03T09:06:23;5.97;;;2.25;;
3659;SDS011;1846;51.482;7.224;2023-04-03T09:08:57;3.65;;;1.90;;
3659;SDS011;1846;51.482;7.224;2023-04-03T09:11:39;3.28;;;2.40;;
3659;SDS011;1846;51.482;7.224;2023-04-03T09:14:14;10.13;;;2.75;;
3659;SDS011;1846;51.482;7.224;2023-04-03T09:16:47;6.72;;;2.67;;
3659;SDS011;1846;51.482;7.224;2023-04-03T09:19:20;2.03;;;1.60;;
3659;SDS011;1846;51.482;7.224;2023-04-03T09:21:52;6.47;;;1.95;;
3659;SDS011;1846;51.482;7.224;2023-04-03T09:24:19;3.50;;;1.60;;
3659;SDS011;1846;51.482;7.224;2023-04-03T09:26:51;1.80;;;1.30;;
3659;SDS011;1846;51.482;7.224;2023-04-03T09:29:21;3.55;;;1.50;;
3659;SDS011;1846;51.482;7.224;2023-04-03T09:31:50;4.07;;;1.50;;
3659;SDS011;1846;51.482;7.224;2023-04-03T09:34:20;2.20;;;1.50;;
3659;SDS011;1846;51.482;7.224;2023-04-03T09:36:51;2.28;;;1.45;;
3659;SDS011;1846;51.482;7.224;2023-04-03T09:39:20;3.83;;;1.85;;
3659;SDS011;1846;51.482;7.224;2023-04-03T09:41:59;2.93;;;1.87;;
3659;SDS011;1846;51.482;7.224;2023-04-03T09:44:28;4.38;;;1.90;;
3659;SDS011;1846;51.482;7.224;2023-04-03T09:46:56;2.17;;;1.60;;
3659;SDS011;1846;51.482;7.224;2023-04-03T09:49:24;2.50;;;1.48;;
3659;SDS011;1846;51.482;7.224;2023-04-03T09:51:51;2.60;;;1.43;;
3659;SDS011;1846;51.482;7.224;2023-04-03T09:54:32;3.90;;;1.50;;
3659;SDS011;1846;51.482;7.224;2023-04-03T09:57:06;3.83;;;1.83;;
3659;SDS011;1846;51.482;7.224;2023-04-03T09:59:37;6.07;;;1.70;;
3659;SDS011;1846;51.482;7.224;2023-04-03T10:05:27;3.90;;;1.53;;
3659;SDS011;1846;51.482;7.224;2023-04-03T10:08:07;5.75;;;1.90;;
3659;SDS011;1846;51.482;7.224;2023-04-03T10:10:36;3.95;;;1.77;;
3659;SDS011;1846;51.482;7.224;2023-04-03T10:13:05;3.63;;;1.40;;
3659;SDS011;1846;51.482;7.224;2023-04-03T10:18:04;2.83;;;1.20;;
3659;SDS011;1846;51.482;7.224;2023-04-03T10:20:47;4.22;;;1.25;;
3659;SDS011;1846;51.482;7.224;2023-04-03T10:23:17;2.88;;;1.20;;
3659;SDS011;1846;51.482;7.224;2023-04-03T10:25:49;3.00;;;1.00;;
3659;SDS011;1846;51.482;7.224;2023-04-03T10:28:28;5.47;;;1.20;;
3659;SDS011;1846;51.482;7.224;2023-04-03T10:31:03;2.27;;;1.30;;
3659;SDS011;1846;51.482;7.224;2023-04-03T10:33:44;4.77;;;1.20;;
3659;SDS011;1846;51.482;7.224;2023-04-03T10:36:22;4.43;;;1.45;;
3659;SDS011;1846;51.482;7.224;2023-04-03T10:38:57;4.90;;;1.30;;
3659;SDS011;1846;51.482;7.224;2023-04-03T10:41:30;1.70;;;1.20;;
3659;SDS011;1846;51.482;7.224;2023-04-03T10:44:11;1.80;;;1.48;;
3659;SDS011;1846;51.482;7.224;2023-04-03T10:46:47;2.87;;;1.63;;
3659;SDS011;1846;51.482;7.224;2023-04-03T10:49:19;3.78;;;1.40;;
3659;SDS011;1846;51.482;7.224;2023-04-03T10:51:55;8.50;;;1.80;;
3659;SDS011;1846;51.482;7.224;2023-04-03T10:54:29;2.00;;;1.40;;
3659;SDS011;1846;51.482;7.224;2023-04-03T10:57:05;10.65;;;1.70;;
3659;SDS011;1846;51.482;7.224;2023-04-03T10:59:37;4.90;;;1.20;;
3659;SDS011;1846;51.482;7.224;2023-04-03T11:02:11;2.50;;;1.10;;
3659;SDS011;1846;51.482;7.224;2023-04-03T11:04:46;2.60;;;1.40;;
3659;SDS011;1846;51.482;7.224;2023-04-03T11:07:18;2.00;;;1.30;;
3659;SDS011;1846;51.482;7.224;2023-04-03T11:09:48;1.55;;;1.00;;
3659;SDS011;1846;51.482;7.224;2023-04-03T11:12:23;3.42;;;1.17;;
3659;SDS011;1846;51.482;7.224;2023-04-03T11:14:55;4.80;;;1.50;;
3659;SDS011;1846;51.482;7.224;2023-04-03T11:17:26;3.00;;;1.30;;
3659;SDS011;1846;51.482;7.224;2023-04-03T11:20:00;2.00;;;1.30;;
3659;SDS011;1846;51.482;7.224;2023-04-03T11:22:32;2.75;;;1.40;;
3659;SDS011;1846;51.482;7.224;2023-04-03T11:25:03;2.15;;;1.25;;
3659;SDS011;1846;51.482;7.224;2023-04-03T11:27:41;5.20;;;1.10;;
3659;SDS011;1846;51.482;7.224;2023-04-03T11:30:16;6.68;;;1.35;;
3659;SDS011;1846;51.482;7.224;2023-04-03T11:32:52;5.78;;;1.40;;
3659;SDS011;1846;51.482;7.224;2023-04-03T11:35:31;2.83;;;1.02;;
3659;SDS011;1846;51.482;7.224;2023-04-03T11:37:59;1.83;;;1.50;;
3659;SDS011;1846;51.482;7.224;2023-04-03T11:40:31;2.20;;;1.20;;
3659;SDS011;1846;51.482;7.224;2023-04-03T11:43:04;7.00;;;2.60;;
3659;SDS011;1846;51.482;7.224;2023-04-03T11:45:40;4.95;;;1.80;;
3659;SDS011;1846;51.482;7.224;2023-04-03T12:06:47;2.35;;;1.00;;
3659;SDS011;1846;51.482;7.224;2023-04-03T12:09:29;7.57;;;1.48;;
3659;SDS011;1846;51.482;7.224;2023-04-03T12:12:20;2.10;;;1.30;;
3659;SDS011;1846;51.482;7.224;2023-04-03T12:14:54;5.60;;;1.70;;
3659;SDS011;1846;51.482;7.224;2023-04-03T12:17:25;4.10;;;1.45;;
3659;SDS011;1846;51.482;7.224;2023-04-03T12:19:54;1.63;;;1.00;;
3659;SDS011;1846;51.482;7.224;2023-04-03T12:22:21;9.23;;;1.35;;
3659;SDS011;1846;51.482;7.224;2023-04-03T12:24:49;3.85;;;1.30;;
3659;SDS011;1846;51.482;7.224;2023-04-03T12:27:30;3.38;;;1.00;;
3659;SDS011;1846;51.482;7.224;2023-04-03T12:30:14;2.50;;;1.20;;
3659;SDS011;1846;51.482;7.224;2023-04-03T12:32:51;3.78;;;1.30;;
3659;SDS011;1846;51.482;7.224;2023-04-03T12:35:42;3.92;;;1.23;;
3659;SDS011;1846;51.482;7.224;2023-04-03T12:41:18;2.93;;;1.30;;
3659;SDS011;1846;51.482;7.224;2023-04-03T12:43:56;3.97;;;1.42;;
3659;SDS011;1846;51.482;7.224;2023-04-03T12:46:36;3.08;;;1.30;;
3659;SDS011;1846;51.482;7.224;2023-04-03T12:49:18;1.10;;;1.00;;
3659;SDS011;1846;51.482;7.224;2023-04-03T12:51:56;4.70;;;1.60;;
3659;SDS011;1846;51.482;7.224;2023-04-03T12:54:26;1.90;;;1.23;;
3659;SDS011;1846;51.482;7.224;2023-04-03T12:57:08;3.70;;;1.30;;
3659;SDS011;1846;51.482;7.224;2023-04-03T12:59:36;4.63;;;1.30;;
3659;SDS011;1846;51.482;7.224;2023-04-03T13:02:07;3.30;;;1.30;;
3659;SDS011;1846;51.482;7.224;2023-04-03T13:04:47;1.85;;;1.10;;
3659;SDS011;1846;51.482;7.224;2023-04-03T13:07:22;4.50;;;1.05;;
3659;SDS011;1846;51.482;7.224;2023-04-03T13:09:55;2.80;;;1.20;;
3659;SDS011;1846;51.482;7.224;2023-04-03T13:12:24;1.40;;;1.00;;
3659;SDS011;1846;51.482;7.224;2023-04-03T13:14:51;5.72;;;1.70;;
3659;SDS011;1846;51.482;7.224;2023-04-03T13:17:19;4.60;;;1.30;;
3659;SDS011;1846;51.482;7.224;2023-04-03T13:19:48;1.93;;;1.00;;
3659;SDS011;1846;51.482;7.224;2023-04-03T13:22:21;2.70;;;1.27;;
3659;SDS011;1846;51.482;7.224;2023-04-03T13:24:54;2.00;;;1.10;;
3659;SDS011;1846;51.482;7.224;2023-04-03T13:27:23;3.40;;;1.30;;
3659;SDS011;1846;51.482;7.224;2023-04-03T13:29:51;1.80;;;1.20;;
3659;SDS011;1846;51.482;7.224;2023-04-03T13:32:21;2.30;;;1.00;;
3659;SDS011;1846;51.482;7.224;2023-04-03T13:34:50;5.75;;;1.55;;
3659;SDS011;1846;51.482;7.224;2023-04-03T13:37:21;4.20;;;1.17;;
3659;SDS011;1846;51.482;7.224;2023-04-03T13:39:56;3.93;;;1.17;;
3659;SDS011;1846;51.482;7.224;2023-04-03T13:42:27;1.83;;;0.90;;
3659;SDS011;1846;51.482;7.224;2023-04-03T13:45:16;10.77;;;2.10;;
3659;SDS011;1846;51.482;7.224;2023-04-03T13:47:46;2.45;;;1.20;;
3659;SDS011;1846;51.482;7.224;2023-04-03T13:50:16;3.47;;;1.20;;
3659;SDS011;1846;51.482;7.224;2023-04-03T13:52:46;4.25;;;1.52;;
3659;SDS011;1846;51.482;7.224;2023-04-03T13:55:16;1.47;;;1.20;;
3659;SDS011;1846;51.482;7.224;2023-04-03T13:57:51;3.28;;;1.20;;
3659;SDS011;1846;51.482;7.224;2023-04-03T14:00:21;2.58;;;1.20;;
3659;SDS011;1846;51.482;7.224;2023-04-03T14:02:54;4.05;;;1.10;;
3659;SDS011;1846;51.482;7.224;2023-04-03T14:05:24;1.88;;;1.38;;
3659;SDS011;1846;51.482;7.224;2023-04-03T14:07:51;7.10;;;1.95;;
3659;SDS011;1846;51.482;7.224;2023-04-03T14:10:22;3.40;;;1.10;;
3659;SDS011;1846;51.482;7.224;2023-04-03T14:12:49;4.57;;;1.00;;
3659;SDS011;1846;51.482;7.224;2023-04-03T14:15:18;3.08;;;1.50;;
3659;SDS011;1846;51.482;7.224;2023-04-03T14:17:48;5.20;;;0.90;;
3659;SDS011;1846;51.482;7.224;2023-04-03T14:20:17;5.18;;;1.10;;
3659;SDS011;1846;51.482;7.224;2023-04-03T14:22:47;2.30;;;1.10;;
3659;SDS011;1846;51.482;7.224;2023-04-03T14:25:14;2.80;;;1.60;;
3659;SDS011;1846;51.482;7.224;2023-04-03T14:27:42;2.22;;;1.00;;
3659;SDS011;1846;51.482;7.224;2023-04-03T14:30:12;3.50;;;1.20;;
3659;SDS011;1846;51.482;7.224;2023-04-03T14:32:41;2.15;;;1.38;;
3659;SDS011;1846;51.482;7.224;2023-04-03T14:35:08;4.40;;;1.37;;
3659;SDS011;1846;51.482;7.224;2023-04-03T14:37:36;2.13;;;0.90;;
3659;SDS011;1846;51.482;7.224;2023-04-03T14:40:05;1.70;;;1.10;;
3659;SDS011;1846;51.482;7.224;2023-04-03T14:42:35;7.22;;;1.40;;
3659;SDS011;1846;51.482;7.224;2023-04-03T14:45:04;8.30;;;1.30;;
3659;SDS011;1846;51.482;7.224;2023-04-03T14:47:33;2.83;;;1.30;;
3659;SDS011;1846;51.482;7.224;2023-04-03T14:50:03;2.78;;;1.08;;
3659;SDS011;1846;51.482;7.224;2023-04-03T14:52:33;2.92;;;1.40;;
3659;SDS011;1846;51.482;7.224;2023-04-03T14:55:02;2.80;;;1.40;;
3659;SDS011;1846;51.482;7.224;2023-04-03T14:57:32;1.70;;;1.10;;
3659;SDS011;1846;51.482;7.224;2023-04-03T15:00:00;2.92;;;1.20;;
3659;SDS011;1846;51.482;7.224;2023-04-03T15:02:30;4.43;;;1.40;;
3659;SDS011;1846;51.482;7.224;2023-04-03T15:04:59;1.20;;;1.10;;
3659;SDS011;1846;51.482;7.224;2023-04-03T15:07:28;3.70;;;1.20;;
3659;SDS011;1846;51.482;7.224;2023-04-03T15:09:57;3.00;;;1.38;;
3659;SDS011;1846;51.482;7.224;2023-04-03T15:12:44;2.05;;;1.23;;
3659;SDS011;1846;51.482;7.224;2023-04-03T15:15:11;2.65;;;1.20;;
3659;SDS011;1846;51.482;7.224;2023-04-03T15:17:39;1.48;;;1.20;;
3659;SDS011;1846;51.482;7.224;2023-04-03T15:20:10;2.10;;;1.50;;
3659;SDS011;1846;51.482;7.224;2023-04-03T15:22:39;3.97;;;1.23;;
3659;SDS011;1846;51.482;7.224;2023-04-03T15:25:06;2.08;;;1.20;;
3659;SDS011;1846;51.482;7.224;2023-04-03T15:27:34;3.78;;;1.52;;
3659;SDS011;1846;51.482;7.224;2023-04-03T15:30:03;2.33;;;1.30;;
3659;SDS011;1846;51.482;7.224;2023-04-03T15:32:31;1.63;;;1.10;;
3659;SDS011;1846;51.482;7.224;2023-04-03T15:34:58;3.13;;;1.40;;
3659;SDS011;1846;51.482;7.224;2023-04-03T15:37:25;2.60;;;1.80;;
3659;SDS011;1846;51.482;7.224;2023-04-03T15:39:52;4.55;;;1.83;;
3659;SDS011;1846;51.482;7.224;2023-04-03T15:42:19;4.43;;;1.48;;
3659;SDS011;1846;51.482;7.224;2023-04-03T15:44:46;2.35;;;1.30;;
3659;SDS011;1846;51.482;7.224;2023-04-03T15:47:14;3.25;;;1.73;;
3659;SDS011;1846;51.482;7.224;2023-04-03T15:49:41;4.45;;;1.48;;
3659;SDS011;1846;51.482;7.224;2023-04-03T15:52:08;1.92;;;1.10;;
3659;SDS011;1846;51.482;7.224;2023-04-03T15:54:37;2.80;;;1.20;;
3659;SDS011;1846;51.482;7.224;2023-04-03T15:57:03;3.00;;;1.42;;